createdAt,value
2023-01-08T00:02:17.941Z,77.57
2023-01-08T00:04:44.817Z,74.85
2023-01-08T00:07:11.448Z,74.63
2023-01-08T00:09:38.336Z,78.43
2023-01-08T00:12:04.947Z,72.93
2023-01-08T00:14:31.631Z,71.70
2023-01-08T00:16:58.651Z,68.80
2023-01-08T00:19:25.513Z,65.68
2023-01-08T00:21:52.208Z,67.45
2023-01-08T00:24:18.744Z,67.50
2023-01-08T00:26:45.975Z,66.13
2023-01-08T00:29:12.393Z,63.83
2023-01-08T00:31:39.383Z,65.68
2023-01-08T00:34:05.989Z,60.53
2023-01-08T00:36:32.625Z,61.15
2023-01-08T00:38:59.052Z,60.78
2023-01-08T00:41:25.509Z,59.70
2023-01-08T00:43:52.154Z,57.95
2023-01-08T00:46:19.284Z,57.65
2023-01-08T00:48:46.781Z,55.92
2023-01-08T00:51:13.367Z,56.75
2023-01-08T00:53:39.977Z,56.03
2023-01-08T00:56:07.133Z,53.75
2023-01-08T00:58:33.834Z,54.05
2023-01-08T01:01:00.433Z,52.90
2023-01-08T01:03:27.176Z,52.08
2023-01-08T01:05:53.687Z,51.40
2023-01-08T01:08:20.079Z,49.10
2023-01-08T01:10:46.547Z,49.15
2023-01-08T01:13:13.430Z,46.63
2023-01-08T01:15:39.919Z,48.13
2023-01-08T01:18:07.233Z,47.47
2023-01-08T01:20:33.673Z,47.80
2023-01-08T01:23:00.339Z,46.30
2023-01-08T01:25:27.350Z,46.60
2023-01-08T01:27:54.250Z,42.83
2023-01-08T01:30:21.030Z,43.00
2023-01-08T01:32:47.727Z,42.83
2023-01-08T01:35:14.113Z,41.42
2023-01-08T01:37:41.073Z,41.85
2023-01-08T01:40:08.796Z,41.92
2023-01-08T01:42:36.126Z,39.70
2023-01-08T01:45:03.009Z,39.85
2023-01-08T01:47:29.677Z,38.30
2023-01-08T01:49:56.061Z,40.15
2023-01-08T01:52:22.728Z,38.42
2023-01-08T01:54:49.178Z,38.67
2023-01-08T01:57:15.820Z,37.40
2023-01-08T01:59:42.351Z,37.15
2023-01-08T02:02:08.988Z,36.30
2023-01-08T02:04:36.217Z,37.03
2023-01-08T02:07:02.832Z,34.60
2023-01-08T02:09:30.826Z,33.40
2023-01-08T02:11:57.506Z,33.72
2023-01-08T02:14:24.414Z,34.42
2023-01-08T02:16:50.853Z,32.75
2023-01-08T02:19:17.870Z,33.03
2023-01-08T02:21:44.612Z,31.83
2023-01-08T02:24:11.200Z,31.63
2023-01-08T02:26:37.947Z,31.38
2023-01-08T02:29:04.658Z,31.00
2023-01-08T02:31:31.205Z,30.42
2023-01-08T02:33:57.852Z,28.75
2023-01-08T02:36:24.381Z,30.50
2023-01-08T02:38:50.921Z,29.50
2023-01-08T02:41:17.194Z,29.00
2023-01-08T02:43:44.150Z,28.35
2023-01-08T02:46:10.530Z,29.27
2023-01-08T02:48:36.969Z,27.90
2023-01-08T02:51:03.482Z,27.98
2023-01-08T02:53:30.177Z,27.15
2023-01-08T02:55:56.778Z,26.70
2023-01-08T02:58:23.491Z,26.80
2023-01-08T03:00:50.150Z,25.08
2023-01-08T03:03:16.960Z,25.02
2023-01-08T03:05:43.319Z,25.30
2023-01-08T03:08:09.688Z,24.85
2023-01-08T03:10:36.996Z,24.25
2023-01-08T03:13:03.484Z,23.67
2023-01-08T03:15:30.383Z,23.33
2023-01-08T03:17:57.999Z,24.10
2023-01-08T03:20:25.229Z,23.63
2023-01-08T03:22:52.203Z,23.00
2023-01-08T03:25:19.234Z,23.30
2023-01-08T03:27:46.225Z,22.98
2023-01-08T03:30:12.564Z,22.08
2023-01-08T03:32:39.388Z,21.55
2023-01-08T03:35:05.802Z,21.35
2023-01-08T03:37:32.649Z,20.13
2023-01-08T03:39:59.277Z,20.90
2023-01-08T03:42:26.105Z,20.63
2023-01-08T03:44:52.513Z,20.85
2023-01-08T03:47:18.836Z,20.38
2023-01-08T03:49:45.184Z,19.95
2023-01-08T03:52:11.573Z,20.02
2023-01-08T03:54:38.032Z,19.13
2023-01-08T03:57:04.679Z,19.45
2023-01-08T03:59:31.148Z,18.45
2023-01-08T04:01:57.784Z,18.60
2023-01-08T04:04:25.945Z,18.20
2023-01-08T04:06:53.116Z,18.65
2023-01-08T04:09:20.999Z,17.35
2023-01-08T04:11:48.387Z,17.83
2023-01-08T04:14:16.808Z,16.98
2023-01-08T04:16:43.705Z,17.00
2023-01-08T04:19:12.095Z,17.27
2023-01-08T04:21:39.733Z,17.27
2023-01-08T04:24:07.264Z,17.15
2023-01-08T04:26:34.477Z,16.25
2023-01-08T04:29:02.234Z,16.17
2023-01-08T04:31:29.875Z,15.90
2023-01-08T04:33:57.002Z,16.20
2023-01-08T04:36:23.738Z,16.20
2023-01-08T04:38:50.442Z,15.88
2023-01-08T04:41:17.043Z,14.70
2023-01-08T04:43:43.745Z,14.88
2023-01-08T04:46:10.271Z,15.07
2023-01-08T04:48:36.913Z,15.35
2023-01-08T04:51:04.085Z,14.80
2023-01-08T04:53:30.450Z,13.95
2023-01-08T04:55:57.410Z,14.85
2023-01-08T04:58:24.167Z,14.40
2023-01-08T05:00:50.583Z,13.65
2023-01-08T05:03:17.460Z,14.02
2023-01-08T05:05:44.580Z,14.02
2023-01-08T05:08:11.182Z,14.07
2023-01-08T05:10:37.605Z,13.50
2023-01-08T05:13:04.616Z,13.70
2023-01-08T05:15:31.044Z,13.38
2023-01-08T05:17:57.777Z,13.88
2023-01-08T05:20:25.235Z,12.23
2023-01-08T05:22:52.197Z,12.68
2023-01-08T05:25:18.823Z,12.63
2023-01-08T05:27:45.772Z,12.23
2023-01-08T05:30:12.076Z,12.48
2023-01-08T05:32:38.931Z,12.45
2023-01-08T05:35:06.216Z,12.10
2023-01-08T05:37:32.577Z,12.30
2023-01-08T05:39:59.678Z,12.50
2023-01-08T05:42:26.201Z,11.48
2023-01-08T05:44:52.575Z,11.70
2023-01-08T05:47:19.353Z,12.13
2023-01-08T05:49:45.919Z,13.30
2023-01-08T05:52:12.737Z,11.25
2023-01-08T05:54:39.668Z,11.80
2023-01-08T05:57:06.711Z,11.23
2023-01-08T05:59:33.455Z,11.05
2023-01-08T06:02:00.225Z,11.30
2023-01-08T06:04:26.846Z,11.38
2023-01-08T06:06:53.596Z,10.75
2023-01-08T06:09:19.946Z,10.75
2023-01-08T06:11:46.904Z,11.68
2023-01-08T06:14:13.506Z,11.00
2023-01-08T06:16:39.861Z,10.90
2023-01-08T06:19:06.282Z,10.88
2023-01-08T06:21:32.840Z,10.27
2023-01-08T06:23:59.166Z,10.00
2023-01-08T06:26:25.574Z,9.90
2023-01-08T06:28:52.000Z,10.38
2023-01-08T06:31:18.458Z,10.55
2023-01-08T06:33:45.267Z,9.85
2023-01-08T06:36:11.785Z,10.60
2023-01-08T06:38:38.568Z,9.73
2023-01-08T06:41:05.196Z,10.95
2023-01-08T06:43:31.738Z,9.32
2023-01-08T06:45:58.293Z,9.68
2023-01-08T06:48:25.402Z,9.98
2023-01-08T06:50:52.441Z,9.63
2023-01-08T06:53:18.893Z,9.80
2023-01-08T06:55:45.434Z,9.60
2023-01-08T06:58:11.786Z,9.98
2023-01-08T07:00:38.120Z,10.13
2023-01-08T07:03:04.811Z,9.45
2023-01-08T07:05:31.637Z,10.27
2023-01-08T07:07:58.339Z,9.40
2023-01-08T07:10:25.127Z,9.25
2023-01-08T07:12:51.583Z,9.40
2023-01-08T07:15:18.296Z,9.20
2023-01-08T07:17:44.807Z,9.43
2023-01-08T07:20:11.166Z,9.25
2023-01-08T07:22:37.563Z,8.73
2023-01-08T07:25:03.980Z,9.20
2023-01-08T07:27:30.463Z,8.85
2023-01-08T07:29:57.001Z,8.63
2023-01-08T07:32:23.497Z,8.48
2023-01-08T07:34:50.156Z,9.10
2023-01-08T07:37:16.655Z,9.50
2023-01-08T07:39:43.196Z,9.48
2023-01-08T07:42:10.081Z,9.00
2023-01-08T07:44:36.721Z,8.10
2023-01-08T07:47:03.868Z,8.18
2023-01-08T07:49:30.454Z,8.93
2023-01-08T07:51:57.535Z,8.40
2023-01-08T07:54:24.506Z,8.35
2023-01-08T07:56:51.361Z,8.65
2023-01-08T07:59:17.977Z,8.55
2023-01-08T08:01:44.652Z,8.40
2023-01-08T08:04:11.278Z,8.25
2023-01-08T08:06:37.820Z,8.27
2023-01-08T08:09:04.622Z,8.27
2023-01-08T08:11:31.062Z,8.30
2023-01-08T08:13:58.177Z,7.75
2023-01-08T08:16:24.779Z,8.15
2023-01-08T08:18:51.265Z,8.40
2023-01-08T08:21:18.094Z,7.70
2023-01-08T08:23:44.745Z,7.80
2023-01-08T08:26:11.561Z,8.25
2023-01-08T08:28:38.314Z,7.72
2023-01-08T08:31:04.651Z,8.10
2023-01-08T08:33:31.723Z,7.80
2023-01-08T08:35:58.291Z,8.02
2023-01-08T08:38:24.669Z,8.05
2023-01-08T08:40:51.818Z,7.43
2023-01-08T08:43:18.532Z,7.25
2023-01-08T08:45:46.241Z,8.20
2023-01-08T08:48:13.399Z,8.00
2023-01-08T08:50:39.803Z,7.32
2023-01-08T08:53:06.322Z,7.43
2023-01-08T08:55:32.848Z,7.45
2023-01-08T08:57:59.688Z,15.00
2023-01-08T09:00:26.467Z,12.35
2023-01-08T09:02:53.419Z,12.32
2023-01-08T09:05:19.959Z,12.77
2023-01-08T09:07:46.720Z,15.45
2023-01-08T09:10:13.066Z,121.68
2023-01-08T09:12:39.521Z,173.05
2023-01-08T09:15:06.573Z,160.13
2023-01-08T09:17:33.331Z,143.43
2023-01-08T09:20:00.313Z,137.32
2023-01-08T09:22:27.111Z,123.35
2023-01-08T09:24:53.456Z,107.03
2023-01-08T09:27:19.978Z,103.07
2023-01-08T09:29:46.969Z,94.70
2023-01-08T09:32:13.645Z,89.55
2023-01-08T09:34:39.896Z,145.07
2023-01-08T09:37:06.387Z,178.52
2023-01-08T09:39:33.653Z,206.57
2023-01-08T09:42:00.311Z,192.55
2023-01-08T09:44:26.902Z,169.63
2023-01-08T09:46:53.839Z,158.27
2023-01-08T09:49:20.505Z,137.73
2023-01-08T09:51:48.467Z,125.95
2023-01-08T09:54:15.324Z,107.55
2023-01-08T09:56:41.670Z,99.38
2023-01-08T09:59:08.076Z,84.85
2023-01-08T10:01:34.657Z,78.20
2023-01-08T10:04:01.440Z,74.18
2023-01-08T10:06:28.303Z,69.95
2023-01-08T10:08:55.559Z,66.55
2023-01-08T10:11:22.710Z,110.50
2023-01-08T10:13:49.116Z,204.48
2023-01-08T10:16:15.891Z,171.93
2023-01-08T10:18:42.371Z,159.20
2023-01-08T10:21:09.156Z,148.95
2023-01-08T10:23:35.774Z,139.00
2023-01-08T10:26:02.484Z,132.05
2023-01-08T10:28:28.989Z,122.20
2023-01-08T10:30:55.323Z,105.28
2023-01-08T10:33:22.218Z,92.85
2023-01-08T10:35:48.657Z,90.20
2023-01-08T10:38:15.378Z,81.78
2023-01-08T10:40:42.003Z,78.72
2023-01-08T10:43:08.306Z,74.47
2023-01-08T10:45:34.907Z,72.95
2023-01-08T10:48:01.557Z,66.78
2023-01-08T10:50:28.007Z,242.40
2023-01-08T10:52:54.429Z,135.73
2023-01-08T10:55:21.095Z,142.32
2023-01-08T10:57:47.807Z,174.38
2023-01-08T11:00:14.358Z,154.35
2023-01-08T11:02:40.711Z,142.25
2023-01-08T11:05:07.590Z,136.45
2023-01-08T11:07:34.134Z,129.05
2023-01-08T11:10:00.792Z,121.80
2023-01-08T11:12:27.155Z,116.75
2023-01-08T11:14:53.604Z,114.32
2023-01-08T11:17:19.974Z,105.68
2023-01-08T11:19:46.571Z,99.22
2023-01-08T11:22:13.298Z,91.57
2023-01-08T11:24:39.892Z,161.48
2023-01-08T11:27:06.320Z,195.50
2023-01-08T11:29:33.000Z,170.07
2023-01-08T11:31:59.528Z,152.65
2023-01-08T11:34:26.279Z,175.48
2023-01-08T11:36:53.095Z,212.18
2023-01-08T11:39:19.483Z,236.23
2023-01-08T11:41:46.230Z,246.73
2023-01-08T11:44:12.618Z,232.10
2023-01-08T11:46:39.537Z,215.95
2023-01-08T11:49:05.880Z,181.40
2023-01-08T11:51:32.610Z,189.68
2023-01-08T11:53:59.107Z,163.57
2023-01-08T11:56:25.490Z,143.63
2023-01-08T11:58:51.935Z,131.05
2023-01-08T12:01:18.550Z,116.10
2023-01-08T12:03:45.065Z,101.97
2023-01-08T12:06:11.428Z,154.63
2023-01-08T12:08:37.872Z,204.45
2023-01-08T12:11:04.891Z,210.25
2023-01-08T12:13:31.348Z,196.32
2023-01-08T12:15:57.969Z,183.70
2023-01-08T12:18:24.337Z,169.52
2023-01-08T12:20:50.751Z,158.32
2023-01-08T12:23:17.682Z,148.50
2023-01-08T12:25:44.250Z,140.20
2023-01-08T12:28:10.902Z,133.27
2023-01-08T12:30:37.590Z,122.22
2023-01-08T12:33:04.110Z,115.88
2023-01-08T12:35:30.688Z,114.35
2023-01-08T12:37:57.230Z,106.20
2023-01-08T12:40:24.042Z,105.85
2023-01-08T12:43:00.310Z,192.45
2023-01-08T12:45:27.482Z,190.70
2023-01-08T12:47:54.235Z,170.63
2023-01-08T12:50:20.755Z,160.18
2023-01-08T12:52:47.715Z,150.93
2023-01-08T12:55:14.206Z,140.60
2023-01-08T12:57:40.720Z,135.30
2023-01-08T13:00:07.232Z,126.20
2023-01-08T13:02:34.250Z,118.32
2023-01-08T13:05:00.644Z,114.60
2023-01-08T13:07:27.678Z,109.53
2023-01-08T13:09:54.095Z,104.80
2023-01-08T13:12:21.846Z,94.38
2023-01-08T13:14:49.846Z,94.85
2023-01-08T13:17:16.636Z,122.53
2023-01-08T13:19:43.472Z,219.10
2023-01-08T13:22:10.137Z,198.52
2023-01-08T13:24:39.152Z,187.52
2023-01-08T13:27:05.868Z,169.82
2023-01-08T13:29:32.785Z,159.82
2023-01-08T13:31:59.529Z,149.30
2023-01-08T13:34:25.992Z,145.13
2023-01-08T13:36:53.413Z,133.95
2023-01-08T13:42:07.560Z,123.95
2023-01-08T13:44:34.189Z,113.15
2023-01-08T13:47:00.754Z,111.00
2023-01-08T13:49:27.777Z,105.85
2023-01-08T13:51:54.335Z,98.68
2023-01-08T13:54:21.148Z,92.65
2023-01-08T13:56:48.708Z,170.05
2023-01-08T13:59:15.534Z,277.50
2023-01-08T14:01:43.552Z,241.00
2023-01-08T14:04:10.738Z,224.57
2023-01-08T14:06:37.363Z,214.18
2023-01-08T14:09:03.923Z,223.73
2023-01-08T14:11:30.945Z,202.88
2023-01-08T14:14:01.817Z,191.10
2023-01-08T14:16:28.803Z,183.00
2023-01-08T14:18:55.461Z,188.88
2023-01-08T14:21:22.479Z,176.13
2023-01-08T14:23:49.411Z,170.60
2023-01-08T14:26:16.274Z,175.25
2023-01-08T14:28:42.775Z,167.23
2023-01-08T14:31:09.684Z,169.93
2023-01-08T14:33:36.001Z,162.00
2023-01-08T14:36:02.346Z,157.30
2023-01-08T14:38:29.169Z,162.10
2023-01-08T14:40:55.528Z,151.93
2023-01-08T14:43:22.059Z,148.50
2023-01-08T14:45:48.841Z,149.85
2023-01-08T14:48:15.411Z,151.35
2023-01-08T14:50:41.845Z,144.20
2023-01-08T14:53:08.381Z,142.48
2023-01-08T14:55:35.220Z,141.00
2023-01-08T14:58:01.756Z,141.05
2023-01-08T15:00:28.389Z,133.45
2023-01-08T15:02:54.858Z,131.88
2023-01-08T15:05:21.850Z,132.05
2023-01-08T15:07:49.008Z,129.93
2023-01-08T15:10:15.601Z,128.90
2023-01-08T15:12:42.088Z,125.20
2023-01-08T15:15:09.048Z,126.68
2023-01-08T15:17:35.567Z,120.43
2023-01-08T15:20:02.022Z,120.28
2023-01-08T15:22:28.447Z,117.93
2023-01-08T15:24:55.474Z,116.82
2023-01-08T15:27:21.945Z,112.63
2023-01-08T15:29:48.372Z,110.57
2023-01-08T15:32:15.349Z,109.43
2023-01-08T15:34:41.747Z,107.53
2023-01-08T15:37:08.508Z,108.15
2023-01-08T15:39:35.019Z,106.70
2023-01-08T15:42:01.590Z,102.75
2023-01-08T15:44:28.035Z,98.63
2023-01-08T15:46:54.616Z,98.38
2023-01-08T15:49:21.078Z,97.15
2023-01-08T15:51:47.712Z,95.85
2023-01-08T15:54:14.601Z,94.32
2023-01-08T15:56:41.206Z,91.93
2023-01-08T15:59:07.835Z,88.60
2023-01-08T16:01:34.310Z,87.97
2023-01-08T16:04:00.839Z,90.47
2023-01-08T16:06:27.248Z,85.55
2023-01-08T16:08:53.701Z,86.45
2023-01-08T16:11:20.219Z,83.82
2023-01-08T16:13:46.673Z,81.85
2023-01-08T16:16:13.525Z,83.45
2023-01-08T16:18:40.051Z,79.20
2023-01-08T16:21:06.605Z,76.10
2023-01-08T16:23:33.128Z,77.13
2023-01-08T16:25:59.610Z,74.35
2023-01-08T16:28:25.964Z,75.50
2023-01-08T16:30:52.350Z,72.55
2023-01-08T16:33:18.723Z,70.35
2023-01-08T16:35:45.717Z,71.97
2023-01-08T16:38:12.147Z,69.82
2023-01-08T16:40:38.879Z,66.65
2023-01-08T16:43:05.300Z,67.50
2023-01-08T16:45:31.721Z,66.97
2023-01-08T16:47:58.103Z,64.40
2023-01-08T16:50:24.477Z,62.90
2023-01-08T16:52:51.574Z,64.53
2023-01-08T16:55:18.222Z,61.38
2023-01-08T16:57:44.607Z,62.03
2023-01-08T17:00:11.395Z,61.45
2023-01-08T17:02:38.174Z,56.42
2023-01-08T17:05:04.677Z,57.05
2023-01-08T17:07:31.588Z,57.05
2023-01-08T17:09:58.006Z,56.80
2023-01-08T17:12:24.523Z,56.65
2023-01-08T17:14:51.626Z,53.83
2023-01-08T17:17:18.200Z,55.78
2023-01-08T17:19:44.644Z,53.17
2023-01-08T17:22:10.993Z,51.40
2023-01-08T17:24:38.093Z,50.10
2023-01-08T17:27:04.805Z,50.22
2023-01-08T17:29:31.195Z,49.17
2023-01-08T17:31:57.787Z,48.28
2023-01-08T17:34:24.432Z,46.80
2023-01-08T17:36:50.845Z,47.03
2023-01-08T17:39:17.505Z,47.13
2023-01-08T17:41:44.181Z,45.50
2023-01-08T17:44:10.861Z,44.85
2023-01-08T17:46:37.284Z,44.80
2023-01-08T17:49:04.168Z,44.60
2023-01-08T17:51:31.086Z,44.40
2023-01-08T17:53:57.528Z,43.90
2023-01-08T17:56:24.192Z,44.50
2023-01-08T17:58:51.035Z,41.90
2023-01-08T18:01:17.611Z,40.95
2023-01-08T18:03:44.195Z,41.38
2023-01-08T18:06:10.956Z,39.28
2023-01-08T18:08:37.697Z,38.22
2023-01-08T18:11:04.180Z,38.92
2023-01-08T18:13:30.918Z,37.08
2023-01-08T18:15:58.209Z,37.00
2023-01-08T18:18:24.926Z,37.03
2023-01-08T18:20:53.872Z,37.80
2023-01-08T18:23:20.693Z,35.55
2023-01-08T18:25:47.445Z,37.38
2023-01-08T18:28:13.818Z,34.35
2023-01-08T18:30:40.508Z,35.22
2023-01-08T18:33:07.333Z,34.03
2023-01-08T18:35:33.684Z,34.25
2023-01-08T18:38:00.125Z,33.30
2023-01-08T18:40:26.860Z,34.03
2023-01-08T18:42:53.407Z,33.30
2023-01-08T18:45:19.899Z,34.33
2023-01-08T18:47:46.594Z,32.40
2023-01-08T18:50:13.086Z,32.42
2023-01-08T18:52:40.093Z,33.45
2023-01-08T18:55:07.058Z,31.33
2023-01-08T18:57:33.754Z,31.52
2023-01-08T19:00:00.355Z,29.83
2023-01-08T19:02:26.959Z,29.33
2023-01-08T19:04:53.579Z,29.40
2023-01-08T19:07:20.315Z,29.27
2023-01-08T19:09:47.209Z,28.95
2023-01-08T19:12:13.909Z,30.15
2023-01-08T19:14:40.942Z,29.08
2023-01-08T19:17:07.350Z,28.00
2023-01-08T19:19:34.827Z,27.52
2023-01-08T19:22:01.250Z,28.35
2023-01-08T19:24:27.610Z,27.25
2023-01-08T19:26:54.249Z,27.38
2023-01-08T19:29:20.630Z,27.50
2023-01-08T19:31:47.524Z,26.15
2023-01-08T19:34:14.104Z,24.98
2023-01-08T19:36:43.625Z,27.85
2023-01-08T19:39:10.346Z,28.15
2023-01-08T19:41:36.683Z,24.45
2023-01-08T19:44:03.950Z,25.60
2023-01-08T19:46:30.550Z,24.48
2023-01-08T19:48:57.098Z,25.25
2023-01-08T19:51:23.870Z,24.67
2023-01-08T19:53:50.434Z,24.13
2023-01-08T19:56:17.322Z,24.05
2023-01-08T19:58:43.775Z,24.63
2023-01-08T20:01:10.420Z,24.38
2023-01-08T20:03:37.263Z,24.10
2023-01-08T20:06:03.718Z,22.95
2023-01-08T20:08:30.110Z,22.25
2023-01-08T20:10:57.103Z,23.85
2023-01-08T20:13:23.486Z,23.40
2023-01-08T20:15:50.548Z,22.90
2023-01-08T20:18:17.267Z,21.05
2023-01-08T20:20:44.216Z,21.88
2023-01-08T20:23:10.640Z,21.70
2023-01-08T20:25:37.095Z,22.52
2023-01-08T20:28:03.921Z,22.63
2023-01-08T20:30:30.313Z,21.52
2023-01-08T20:32:57.206Z,21.83
2023-01-08T20:35:24.111Z,21.90
2023-01-08T20:37:50.980Z,20.95
2023-01-08T20:40:17.446Z,20.48
2023-01-08T20:42:44.045Z,19.95
2023-01-08T20:45:10.419Z,20.45
2023-01-08T20:47:37.022Z,20.02
2023-01-08T20:50:12.332Z,20.05
2023-01-08T20:52:45.975Z,20.48
2023-01-08T20:55:12.473Z,20.33
2023-01-08T20:57:39.639Z,19.25
2023-01-08T21:00:06.107Z,19.83
2023-01-08T21:02:32.858Z,19.17
2023-01-08T21:04:59.593Z,18.38
2023-01-08T21:07:26.028Z,20.02
2023-01-08T21:09:52.974Z,18.33
2023-01-08T21:12:19.404Z,18.48
2023-01-08T21:14:45.998Z,19.15
2023-01-08T21:17:12.478Z,17.98
2023-01-08T21:19:38.989Z,18.92
2023-01-08T21:22:05.533Z,17.70
2023-01-08T21:24:32.066Z,19.05
2023-01-08T21:26:58.569Z,18.17
2023-01-08T21:29:25.052Z,18.33
2023-01-08T21:31:51.493Z,17.67
2023-01-08T21:34:18.419Z,17.02
2023-01-08T21:36:45.262Z,16.52
2023-01-08T21:39:12.168Z,17.25
2023-01-08T21:41:38.647Z,17.60
2023-01-08T21:44:05.103Z,16.67
2023-01-08T21:46:31.807Z,16.83
2023-01-08T21:48:58.259Z,17.17
2023-01-08T21:51:25.393Z,16.83
2023-01-08T21:53:51.829Z,16.33
2023-01-08T21:56:18.473Z,17.05
2023-01-08T21:58:44.876Z,15.70
2023-01-08T22:01:11.384Z,16.95
2023-01-08T22:03:38.211Z,16.65
2023-01-08T22:06:04.634Z,17.08
2023-01-08T22:08:31.314Z,16.33
2023-01-08T22:10:57.991Z,15.82
2023-01-08T22:13:25.277Z,15.32
2023-01-08T22:15:52.378Z,15.20
2023-01-08T22:18:20.189Z,16.23
2023-01-08T22:20:46.817Z,14.98
2023-01-08T22:23:13.666Z,15.50
2023-01-08T22:25:40.076Z,14.93
2023-01-08T22:28:07.215Z,15.30
2023-01-08T22:30:34.187Z,14.68
2023-01-08T22:33:00.564Z,15.23
2023-01-08T22:35:27.650Z,14.52
2023-01-08T22:37:54.644Z,15.75
2023-01-08T22:40:21.883Z,15.38
2023-01-08T22:42:48.395Z,14.65
2023-01-08T22:45:15.148Z,14.40
2023-01-08T22:47:41.564Z,14.05
2023-01-08T22:50:08.296Z,14.43
2023-01-08T22:52:35.165Z,14.70
2023-01-08T22:55:01.681Z,14.27
2023-01-08T22:57:28.559Z,13.70
2023-01-08T22:59:55.018Z,14.40
2023-01-08T23:02:21.800Z,13.13
2023-01-08T23:04:48.293Z,13.63
2023-01-08T23:07:14.814Z,13.77
2023-01-08T23:09:41.435Z,14.55
2023-01-08T23:12:07.863Z,13.93
2023-01-08T23:14:34.755Z,13.65
2023-01-08T23:17:01.356Z,13.55
2023-01-08T23:19:28.342Z,14.40
2023-01-08T23:21:55.250Z,13.60
2023-01-08T23:24:21.623Z,13.98
2023-01-08T23:26:48.304Z,13.43
2023-01-08T23:29:14.911Z,13.55
2023-01-08T23:31:41.366Z,12.88
2023-01-08T23:34:08.837Z,13.85
2023-01-08T23:36:35.325Z,14.00
2023-01-08T23:39:01.795Z,13.38
2023-01-08T23:41:28.287Z,13.68
2023-01-08T23:43:54.866Z,13.57
2023-01-08T23:46:21.579Z,13.55
2023-01-08T23:48:48.232Z,12.95
2023-01-08T23:51:14.604Z,13.80
2023-01-08T23:53:41.274Z,12.55
2023-01-08T23:56:07.628Z,12.80
2023-01-08T23:58:34.075Z,12.63
